Time;durP1;ratioP1;P1;durP2;ratioP2;P2;SDS_P1;SDS_P2;PMS_P1;PMS_P2;Temp;Humidity;BMP_temperature;BMP_pressure;BME280_temperature;BME280_humidity;BME280_pressure;Samples;Min_cycle;Max_cycle;Signal;HPM_P1;HPM_P2
2023/06/12 00:00:52;;;;;;;1999.90;999.90;;;13.30;99.90;;;;;;5054765;28;20044;-71
2023/06/12 00:03:23;;;;;;;1999.90;999.90;;;13.20;99.90;;;;;;5049566;28;20029;-72
2023/06/12 00:05:52;;;;;;;1999.90;999.90;;;13.10;99.90;;;;;;5050576;28;20060;-73
2023/06/12 00:08:20;;;;;;;1999.90;999.90;;;13.30;99.90;;;;;;5048982;28;20031;-73
2023/06/12 00:10:48;;;;;;;1999.90;999.90;;;13.60;99.90;;;;;;5060391;28;20025;-70
2023/06/12 00:13:15;;;;;;;1999.90;999.90;;;14.20;99.90;;;;;;5053597;28;20028;-74
2023/06/12 00:15:43;;;;;;;1999.90;999.90;;;14.60;99.90;;;;;;5049597;28;20112;-73
2023/06/12 00:18:12;;;;;;;1999.90;999.90;;;15.20;99.90;;;;;;5059999;28;20024;-71
2023/06/12 00:20:39;;;;;;;1999.90;999.90;;;16.00;99.90;;;;;;5056657;28;20512;-73
2023/06/12 00:23:10;;;;;;;1999.90;999.90;;;17.00;99.90;;;;;;5047692;28;20418;-70
2023/06/12 00:25:38;;;;;;;1999.90;999.90;;;17.50;99.90;;;;;;5051247;28;20092;-71
2023/06/12 00:28:06;;;;;;;1999.90;999.90;;;18.10;99.80;;;;;;5061437;28;20048;-70
2023/06/12 00:30:33;;;;;;;1999.90;999.90;;;18.40;99.60;;;;;;5063138;28;20111;-70
2023/06/12 00:33:00;;;;;;;1999.90;999.90;;;18.30;98.90;;;;;;5053924;28;20033;-71
2023/06/12 00:35:28;;;;;;;1999.90;999.90;;;17.70;98.60;;;;;;5057175;28;20027;-72
2023/06/12 00:37:55;;;;;;;1999.90;999.90;;;17.00;99.50;;;;;;5056936;28;20024;-70
2023/06/12 00:40:23;;;;;;;1999.90;999.90;;;16.70;99.90;;;;;;5060895;28;20128;-72
2023/06/12 00:42:51;;;;;;;1999.90;999.90;;;17.00;99.90;;;;;;5056630;28;20086;-69
2023/06/12 00:45:24;;;;;;;1999.90;999.90;;;17.80;99.80;;;;;;5059735;28;20043;-70
2023/06/12 00:47:56;;;;;;;1999.90;999.90;;;18.70;98.70;;;;;;5054821;28;20141;-70
2023/06/12 00:50:27;;;;;;;1999.90;999.90;;;19.70;98.50;;;;;;5057843;28;20388;-70
2023/06/12 00:52:56;;;;;;;1999.90;999.90;;;20.50;97.50;;;;;;5051865;28;20637;-68
2023/06/12 00:55:24;;;;;;;1999.90;999.90;;;21.00;95.60;;;;;;5067245;28;20158;-70
2023/06/12 00:57:52;;;;;;;1999.90;999.90;;;20.70;95.50;;;;;;5057269;28;20039;-70
2023/06/12 01:00:20;;;;;;;1999.90;999.90;;;19.90;95.90;;;;;;5056643;28;20076;-71
2023/06/12 01:02:53;;;;;;;1999.90;999.90;;;19.10;96.40;;;;;;5052514;28;20035;-73
2023/06/12 01:05:35;;;;;;;1999.90;999.90;;;18.10;97.60;;;;;;5046201;28;20033;-69
2023/06/12 01:08:15;;;;;;;1999.90;999.90;;;17.70;98.80;;;;;;5055746;28;20044;-69
2023/06/12 01:10:49;;;;;;;1999.90;999.90;;;18.20;99.40;;;;;;5052994;28;20029;-69
2023/06/12 01:13:18;;;;;;;1999.90;999.90;;;18.70;98.40;;;;;;5051925;28;20028;-70
2023/06/12 01:15:46;;;;;;;1999.90;999.90;;;19.10;97.60;;;;;;5060830;28;20044;-72
2023/06/12 01:18:14;;;;;;;1999.90;999.90;;;19.70;97.50;;;;;;5055894;28;20112;-71
2023/06/12 01:20:42;;;;;;;1999.90;999.90;;;20.40;96.20;;;;;;5053085;28;20447;-72
2023/06/12 01:23:25;;;;;;;1999.90;999.90;;;20.60;95.90;;;;;;5051035;28;20040;-70
2023/06/12 01:26:29;;;;;;;1999.90;999.90;;;20.20;96.30;;;;;;5046996;28;20048;-70
2023/06/12 01:29:11;;;;;;;1999.90;999.90;;;19.60;96.50;;;;;;5053470;28;20016;-69
2023/06/12 01:31:59;;;;;;;1999.90;999.90;;;18.70;97.00;;;;;;5041297;28;20025;-69
2023/06/12 01:34:58;;;;;;;1999.90;999.90;;;18.00;97.80;;;;;;5049420;28;20047;-69
2023/06/12 01:37:37;;;;;;;1999.90;999.90;;;17.60;98.60;;;;;;5046208;28;20361;-70
2023/06/12 01:40:08;;;;;;;1999.90;999.90;;;17.20;99.20;;;;;;5048519;28;20025;-69
2023/06/12 01:42:35;;;;;;;1999.90;999.90;;;16.90;99.90;;;;;;5057091;28;20025;-71
2023/06/12 01:45:03;;;;;;;1999.90;999.90;;;16.90;99.90;;;;;;5058705;28;20040;-71
2023/06/12 01:47:32;;;;;;;1999.90;999.90;;;17.00;99.90;;;;;;5052935;28;20040;-72
2023/06/12 01:50:00;;;;;;;1999.90;999.90;;;17.20;99.90;;;;;;5054130;28;20021;-72
2023/06/12 01:52:27;;;;;;;1999.90;999.90;;;17.70;99.90;;;;;;5050802;28;20032;-72
2023/06/12 01:54:58;;;;;;;1999.90;999.90;;;18.40;98.80;;;;;;5055916;28;20072;-69
2023/06/12 01:57:27;;;;;;;1999.90;999.90;;;18.60;98.30;;;;;;5049927;28;20024;-70
2023/06/12 01:59:55;;;;;;;1999.90;999.90;;;18.80;98.40;;;;;;5059097;28;20035;-72
2023/06/12 02:02:22;;;;;;;1999.90;999.90;;;18.70;98.00;;;;;;5047617;28;20048;-69
2023/06/12 02:04:50;;;;;;;1999.90;999.90;;;18.30;98.30;;;;;;5051651;28;20081;-69
2023/06/12 02:07:17;;;;;;;1999.90;999.90;;;18.30;98.50;;;;;;5054870;28;20487;-69
2023/06/12 02:09:45;;;;;;;1999.90;999.90;;;18.90;97.70;;;;;;5049780;28;20024;-72
2023/06/12 02:12:13;;;;;;;1999.90;999.90;;;19.60;97.70;;;;;;5051531;28;20039;-72
2023/06/12 02:14:43;;;;;;;1999.90;999.90;;;20.80;97.00;;;;;;5061476;28;20121;-69
2023/06/12 02:17:13;;;;;;;1999.90;999.90;;;21.70;95.30;;;;;;5055612;28;20064;-68
2023/06/12 02:19:41;;;;;;;1999.90;999.90;;;22.60;94.40;;;;;;5060325;28;20037;-70
2023/06/12 02:22:08;;;;;;;1999.90;999.90;;;23.30;93.30;;;;;;5056045;28;20024;-71
2023/06/12 02:24:37;;;;;;;1999.90;999.90;;;23.70;92.60;;;;;;5056532;28;20040;-69
2023/06/12 02:27:05;;;;;;;1999.90;999.90;;;24.10;92.80;;;;;;5060491;28;20504;-68
2023/06/12 02:29:32;;;;;;;1999.90;999.90;;;24.30;92.00;;;;;;5064170;28;20043;-69
2023/06/12 02:32:00;;;;;;;1999.90;999.90;;;23.90;91.90;;;;;;5060401;28;20028;-68
2023/06/12 02:34:27;;;;;;;1999.90;999.90;;;23.10;92.00;;;;;;5061503;28;20032;-70
2023/06/12 02:36:54;;;;;;;1999.90;999.90;;;22.30;92.70;;;;;;5063560;28;20025;-68
2023/06/12 02:39:22;;;;;;;1999.90;999.90;;;21.90;93.70;;;;;;5063732;28;20103;-69
2023/06/12 02:41:50;;;;;;;1999.90;999.90;;;21.90;94.10;;;;;;5052786;28;20016;-69
2023/06/12 02:44:17;;;;;;;1999.90;999.90;;;21.60;93.50;;;;;;5061251;28;20056;-69
2023/06/12 02:46:55;;;;;;;1999.90;999.90;;;21.60;94.10;;;;;;5059555;28;20062;-69
2023/06/12 02:49:24;;;;;;;1999.90;999.90;;;22.20;93.70;;;;;;5058974;28;20059;-71
2023/06/12 02:51:51;;;;;;;1999.90;999.90;;;22.90;93.00;;;;;;5045023;28;20120;-69
2023/06/12 02:54:21;;;;;;;1999.90;999.90;;;23.20;92.20;;;;;;5056516;28;20391;-71
2023/06/12 02:56:49;;;;;;;1999.90;999.90;;;23.30;92.40;;;;;;5062976;28;20079;-68
2023/06/12 02:59:18;;;;;;;1999.90;999.90;;;23.40;92.20;;;;;;5071366;28;20020;-69
2023/06/12 03:01:46;;;;;;;1999.90;999.90;;;22.90;92.40;;;;;;5049300;28;20049;-71
2023/06/12 03:04:22;;;;;;;1999.90;999.90;;;22.60;92.20;;;;;;5052729;28;20040;-67
2023/06/12 03:06:53;;;;;;;1999.90;999.90;;;22.50;92.90;;;;;;5050689;28;20041;-69
2023/06/12 03:09:22;;;;;;;1999.90;999.90;;;22.50;92.90;;;;;;5053722;28;20445;-68
2023/06/12 03:11:52;;;;;;;1999.90;999.90;;;22.30;92.40;;;;;;5046857;28;20128;-68
2023/06/12 03:14:24;;;;;;;1999.90;999.90;;;22.20;92.90;;;;;;5053883;28;20095;-68
2023/06/12 03:16:51;;;;;;;1999.90;999.90;;;22.10;93.70;;;;;;5056259;28;20029;-69
2023/06/12 03:19:19;;;;;;;1999.90;999.90;;;22.10;93.30;;;;;;5059555;28;20029;-69
2023/06/12 03:21:46;;;;;;;1999.90;999.90;;;22.20;93.40;;;;;;5043125;28;20033;-70
2023/06/12 03:24:14;;;;;;;1999.90;999.90;;;22.10;93.20;;;;;;5061556;28;20082;-69
2023/06/12 03:26:43;;;;;;;1999.90;999.90;;;22.00;93.40;;;;;;5048781;28;20071;-69
2023/06/12 03:29:10;;;;;;;1999.90;999.90;;;21.70;93.80;;;;;;5057222;28;20449;-70
2023/06/12 03:31:39;;;;;;;1999.90;999.90;;;21.50;93.70;;;;;;5052489;28;20025;-68
2023/06/12 03:34:07;;;;;;;1999.90;999.90;;;21.10;94.10;;;;;;5069018;28;20078;-71
2023/06/12 03:36:37;;;;;;;1999.90;999.90;;;20.80;94.40;;;;;;5063881;28;20032;-68
2023/06/12 03:39:05;;;;;;;1999.90;999.90;;;20.60;95.00;;;;;;5054752;28;20552;-70
2023/06/12 03:41:33;;;;;;;1999.90;999.90;;;20.40;95.10;;;;;;5064484;28;20119;-69
2023/06/12 03:44:01;;;;;;;1999.90;999.90;;;20.20;95.40;;;;;;5052410;28;20071;-73
2023/06/12 03:46:32;;;;;;;1999.90;999.90;;;20.00;95.70;;;;;;5054115;28;20041;-70
2023/06/12 03:49:00;;;;;;;1999.90;999.90;;;19.70;95.80;;;;;;5064232;28;20345;-70
2023/06/12 03:51:28;;;;;;;1999.90;999.90;;;19.50;96.40;;;;;;5054290;28;20078;-69
2023/06/12 03:53:56;;;;;;;1999.90;999.90;;;19.40;96.60;;;;;;5057077;28;20021;-71
2023/06/12 03:56:23;;;;;;;1999.90;999.90;;;19.40;96.80;;;;;;5056767;28;20024;-72
2023/06/12 03:58:51;;;;;;;1999.90;999.90;;;19.40;96.70;;;;;;5062198;28;20025;-69
2023/06/12 04:01:18;;;;;;;1999.90;999.90;;;19.30;96.90;;;;;;5051044;28;20631;-70
2023/06/12 04:03:48;;;;;;;1999.90;999.90;;;19.30;96.90;;;;;;5057185;28;20043;-69
2023/06/12 04:06:19;;;;;;;1999.90;999.90;;;19.30;96.80;;;;;;5062945;28;20113;-69
2023/06/12 04:08:46;;;;;;;1999.90;999.90;;;19.40;97.00;;;;;;5062166;28;20029;-69
2023/06/12 04:11:15;;;;;;;1999.90;999.90;;;19.40;97.00;;;;;;5054358;28;20054;-70
2023/06/12 04:13:42;;;;;;;1999.90;999.90;;;19.40;97.30;;;;;;5059927;28;20187;-69
2023/06/12 04:16:10;;;;;;;1999.90;999.90;;;19.40;97.20;;;;;;5055623;28;20021;-73
2023/06/12 04:18:38;;;;;;;1999.90;999.90;;;19.30;97.10;;;;;;5054291;28;20053;-72
2023/06/12 04:21:07;;;;;;;1999.90;999.90;;;19.30;97.20;;;;;;5048570;28;20506;-69
2023/06/12 04:23:37;;;;;;;1999.90;999.90;;;19.20;97.40;;;;;;5055964;28;20056;-68
2023/06/12 04:26:06;;;;;;;1999.90;999.90;;;19.20;97.70;;;;;;5052194;28;20032;-70
2023/06/12 04:28:35;;;;;;;1999.90;999.90;;;19.10;97.80;;;;;;5058822;28;20025;-70
2023/06/12 04:31:03;;;;;;;1999.90;999.90;;;19.10;97.70;;;;;;5056788;28;21714;-71
2023/06/12 04:33:32;;;;;;;1999.90;999.90;;;19.10;97.80;;;;;;5051973;28;20029;-69
2023/06/12 04:36:03;;;;;;;1999.90;999.90;;;19.10;97.70;;;;;;5056405;28;20032;-71
2023/06/12 04:38:30;;;;;;;1999.90;999.90;;;19.10;97.70;;;;;;5062693;28;20096;-70
2023/06/12 04:41:02;;;;;;;1999.90;999.90;;;19.00;97.80;;;;;;5059703;28;20104;-70
2023/06/12 04:43:30;;;;;;;1999.90;999.90;;;18.80;98.30;;;;;;5051838;28;20052;-69
2023/06/12 04:45:57;;;;;;;1999.90;999.90;;;18.70;98.20;;;;;;5053731;28;20243;-70
2023/06/12 04:48:26;;;;;;;1999.90;999.90;;;18.50;98.50;;;;;;5055919;28;20475;-70
2023/06/12 04:50:54;;;;;;;1999.90;999.90;;;18.40;98.90;;;;;;5048834;28;20040;-70
2023/06/12 04:53:30;;;;;;;1999.90;999.90;;;18.30;99.10;;;;;;5046945;28;20045;-69
2023/06/12 04:55:58;;;;;;;1999.90;999.90;;;18.30;99.30;;;;;;5051244;28;20033;-70
2023/06/12 04:58:26;;;;;;;1999.90;999.90;;;18.30;99.40;;;;;;5050284;28;20039;-70
2023/06/12 05:00:55;;;;;;;1999.90;999.90;;;18.30;99.50;;;;;;5052124;28;20115;-70
2023/06/12 05:03:23;;;;;;;1999.90;999.90;;;18.30;99.50;;;;;;5050801;28;20039;-71
2023/06/12 05:05:51;;;;;;;1999.90;999.90;;;18.40;99.40;;;;;;5050991;28;20040;-71
2023/06/12 05:08:19;;;;;;;1999.90;999.90;;;18.50;99.40;;;;;;5055415;28;20064;-71
2023/06/12 05:10:47;;;;;;;1999.90;999.90;;;18.60;99.50;;;;;;5056624;28;20114;-70
2023/06/12 05:13:14;;;;;;;1999.90;999.90;;;18.70;99.50;;;;;;5047805;28;20114;-70
2023/06/12 05:15:43;;;;;;;1999.90;999.90;;;18.70;99.50;;;;;;5062491;28;20394;-73
2023/06/12 05:18:10;;;;;;;1999.90;999.90;;;18.70;99.60;;;;;;5044173;28;20504;-70
2023/06/12 05:20:38;;;;;;;1999.90;999.90;;;18.60;99.50;;;;;;5051463;28;20027;-70
2023/06/12 05:23:06;;;;;;;1999.90;999.90;;;18.60;99.70;;;;;;5049431;28;20056;-71
2023/06/12 05:25:34;;;;;;;1999.90;999.90;;;18.40;99.50;;;;;;5050232;28;20021;-69
2023/06/12 05:28:01;;;;;;;1999.90;999.90;;;18.40;99.70;;;;;;5045813;28;20061;-70
2023/06/12 05:30:28;;;;;;;1999.90;999.90;;;18.30;99.90;;;;;;5052750;28;20104;-72
2023/06/12 05:32:56;;;;;;;1999.90;999.90;;;18.20;99.90;;;;;;5056139;28;20029;-72
2023/06/12 05:35:24;;;;;;;1999.90;999.90;;;18.20;99.90;;;;;;5061684;28;20086;-72
2023/06/12 05:37:51;;;;;;;1999.90;999.90;;;18.10;99.90;;;;;;5053849;28;20051;-71
2023/06/12 05:40:19;;;;;;;1999.90;999.90;;;18.10;99.90;;;;;;5058837;28;20027;-69
2023/06/12 05:42:47;;;;;;;1999.90;999.90;;;18.00;99.90;;;;;;5057687;28;20025;-71
2023/06/12 05:45:14;;;;;;;1999.90;999.90;;;18.00;99.90;;;;;;5058225;28;20032;-70
2023/06/12 05:47:42;;;;;;;1999.90;999.90;;;18.00;99.90;;;;;;5051688;28;20045;-70
2023/06/12 05:50:10;;;;;;;1999.90;999.90;;;17.90;99.90;;;;;;5052878;28;20025;-72
2023/06/12 05:52:37;;;;;;;1999.90;999.90;;;17.90;99.90;;;;;;5051621;28;20029;-71
2023/06/12 05:55:05;;;;;;;1999.90;999.90;;;17.80;99.90;;;;;;5060889;28;20029;-70
2023/06/12 05:57:34;;;;;;;1999.90;999.90;;;17.70;99.90;;;;;;5053484;28;20032;-70
2023/06/12 06:00:05;;;;;;;1999.90;999.90;;;17.60;99.90;;;;;;5055683;28;20499;-71
2023/06/12 06:02:33;;;;;;;1999.90;999.90;;;17.50;99.90;;;;;;5052789;28;20045;-70
2023/06/12 06:05:01;;;;;;;1999.90;999.90;;;17.40;99.90;;;;;;5056956;28;20029;-69
2023/06/12 06:07:30;;;;;;;1999.90;999.90;;;17.30;99.90;;;;;;5052344;28;20056;-70
2023/06/12 06:09:57;;;;;;;1999.90;999.90;;;17.10;99.90;;;;;;5055350;28;20016;-69
2023/06/12 06:12:25;;;;;;;1999.90;999.90;;;17.00;99.90;;;;;;5050566;28;20036;-70
2023/06/12 06:14:52;;;;;;;1999.90;999.90;;;17.00;99.90;;;;;;5053104;28;20071;-70
2023/06/12 06:17:22;;;;;;;1999.90;999.90;;;16.90;99.90;;;;;;5057087;28;20029;-71
2023/06/12 06:19:49;;;;;;;1999.90;999.90;;;16.90;99.90;;;;;;5056698;28;20024;-75
2023/06/12 06:22:20;;;;;;;1999.90;999.90;;;16.80;99.90;;;;;;5057968;28;20078;-71
2023/06/12 06:24:47;;;;;;;1999.90;999.90;;;16.70;99.90;;;;;;5051458;28;20024;-70
2023/06/12 06:27:14;;;;;;;1999.90;999.90;;;16.70;99.90;;;;;;5050080;28;20051;-72
2023/06/12 06:29:42;;;;;;;1999.90;999.90;;;16.70;99.90;;;;;;5055466;28;20029;-73
2023/06/12 06:32:09;;;;;;;1999.90;999.90;;;16.70;99.90;;;;;;5043413;28;20034;-72
2023/06/12 06:34:37;;;;;;;1999.90;999.90;;;16.60;99.90;;;;;;5045686;28;20112;-74
2023/06/12 06:37:04;;;;;;;1999.90;999.90;;;16.60;99.90;;;;;;5051574;28;20449;-73
2023/06/12 06:39:32;;;;;;;1999.90;999.90;;;16.50;99.90;;;;;;5051232;28;20037;-70
2023/06/12 06:42:02;;;;;;;1999.90;999.90;;;16.40;99.90;;;;;;5050154;28;20029;-72
2023/06/12 06:44:30;;;;;;;1999.90;999.90;;;16.30;99.90;;;;;;5054118;28;20038;-73
2023/06/12 06:46:57;;;;;;;1999.90;999.90;;;16.20;99.90;;;;;;5049335;28;20045;-71
2023/06/12 06:49:26;;;;;;;1999.90;999.90;;;16.20;99.90;;;;;;5052791;28;20025;-71
2023/06/12 06:51:53;;;;;;;1999.90;999.90;;;16.10;99.90;;;;;;5046384;28;20518;-71
2023/06/12 06:54:20;;;;;;;1999.90;999.90;;;16.00;99.90;;;;;;5052179;28;20125;-71
2023/06/12 06:56:48;;;;;;;1999.90;999.90;;;16.00;99.90;;;;;;5052830;28;20036;-70
2023/06/12 06:59:16;;;;;;;1999.90;999.90;;;15.90;99.90;;;;;;5048300;28;20032;-72
2023/06/12 07:01:43;;;;;;;1999.90;999.90;;;15.80;99.90;;;;;;5052161;28;20068;-73
2023/06/12 07:04:11;;;;;;;1999.90;999.90;;;15.80;99.90;;;;;;5055427;28;20135;-71
2023/06/12 07:06:38;;;;;;;1999.90;999.90;;;15.70;99.90;;;;;;5056207;28;20040;-73
2023/06/12 07:09:08;;;;;;;1999.90;999.90;;;15.70;99.90;;;;;;5061796;28;20052;-69
2023/06/12 07:11:36;;;;;;;1999.90;999.90;;;15.70;99.90;;;;;;5052067;28;20444;-70
2023/06/12 07:14:03;;;;;;;1999.90;999.90;;;15.60;99.90;;;;;;5059814;28;20429;-70
2023/06/12 07:16:31;;;;;;;1999.90;999.90;;;15.60;99.90;;;;;;5059607;28;20104;-71
2023/06/12 07:18:59;;;;;;;1999.90;999.90;;;15.50;99.90;;;;;;5061644;28;20029;-72
2023/06/12 07:21:26;;;;;;;1999.90;999.90;;;15.50;99.90;;;;;;5060146;28;20032;-71
2023/06/12 07:23:53;;;;;;;1999.90;999.90;;;15.40;99.90;;;;;;5051639;28;20017;-71
2023/06/12 07:26:22;;;;;;;1999.90;999.90;;;15.30;99.90;;;;;;5061082;28;20033;-71
2023/06/12 07:28:49;;;;;;;1999.90;999.90;;;15.30;99.90;;;;;;5061252;28;20025;-70
2023/06/12 07:31:17;;;;;;;1999.90;999.90;;;15.20;99.90;;;;;;5051493;28;20029;-70
2023/06/12 07:33:45;;;;;;;1999.90;999.90;;;15.20;99.90;;;;;;5055392;28;20416;-71
2023/06/12 07:36:14;;;;;;;1999.90;999.90;;;15.20;99.90;;;;;;5061380;28;20033;-72
2023/06/12 07:38:43;;;;;;;1999.90;999.90;;;15.10;99.90;;;;;;5060094;28;20479;-71
2023/06/12 07:41:10;;;;;;;1999.90;999.90;;;15.00;99.90;;;;;;5042752;28;20566;-70
2023/06/12 07:43:39;;;;;;;1999.90;999.90;;;15.00;99.90;;;;;;5061426;28;20040;-70
2023/06/12 07:46:06;;;;;;;1999.90;999.90;;;15.00;99.90;;;;;;5050568;28;20037;-71
2023/06/12 07:48:33;;;;;;;1999.90;999.90;;;14.90;99.90;;;;;;5051443;28;20093;-71
2023/06/12 07:51:02;;;;;;;1999.90;999.90;;;14.90;99.90;;;;;;5055390;28;20025;-71
2023/06/12 07:53:30;;;;;;;1999.90;999.90;;;14.80;99.90;;;;;;5057950;28;20033;-71
2023/06/12 07:55:57;;;;;;;1999.90;999.90;;;14.80;99.90;;;;;;5059419;28;20154;-70
2023/06/12 07:58:24;;;;;;;1999.90;999.90;;;14.70;99.90;;;;;;5063856;28;20021;-72
2023/06/12 08:00:55;;;;;;;1999.90;999.90;;;14.70;99.90;;;;;;5057464;28;20052;-71
2023/06/12 08:03:25;;;;;;;1999.90;999.90;;;14.70;99.90;;;;;;5059505;28;20037;-69
2023/06/12 08:05:53;;;;;;;1999.90;999.90;;;14.60;99.90;;;;;;5058419;28;20043;-71
2023/06/12 08:08:21;;;;;;;1999.90;999.90;;;14.50;99.90;;;;;;5056349;28;20100;-70
2023/06/12 08:10:49;;;;;;;1999.90;999.90;;;14.40;99.90;;;;;;5053354;28;20067;-71
2023/06/12 08:13:16;;;;;;;1999.90;999.90;;;14.30;99.90;;;;;;5058261;28;20025;-70
2023/06/12 08:15:44;;;;;;;1999.90;999.90;;;14.20;99.90;;;;;;5054592;28;20032;-72
2023/06/12 08:18:11;;;;;;;1999.90;999.90;;;14.20;99.90;;;;;;5057487;28;20028;-69
2023/06/12 08:20:39;;;;;;;1999.90;999.90;;;14.20;99.90;;;;;;5052740;28;20021;-72
2023/06/12 08:23:06;;;;;;;1999.90;999.90;;;14.10;99.90;;;;;;5058385;28;20025;-70
2023/06/12 08:25:34;;;;;;;1999.90;999.90;;;14.10;99.90;;;;;;5047987;28;20111;-70
2023/06/12 08:28:01;;;;;;;1999.90;999.90;;;14.00;99.90;;;;;;5050609;28;20048;-70
2023/06/12 08:30:29;;;;;;;1999.90;999.90;;;14.00;99.90;;;;;;5056568;28;20028;-70
2023/06/12 08:32:57;;;;;;;1999.90;999.90;;;13.80;99.90;;;;;;5052386;28;20032;-71
2023/06/12 08:35:24;;;;;;;1999.90;999.90;;;13.80;99.90;;;;;;5060515;28;20029;-71
2023/06/12 08:37:52;;;;;;;1999.90;999.90;;;13.70;99.90;;;;;;5065420;28;20112;-71
2023/06/12 08:40:19;;;;;;;1999.90;999.90;;;13.70;99.90;;;;;;5058727;28;20023;-72
2023/06/12 08:42:51;;;;;;;1999.90;999.90;;;13.60;99.90;;;;;;5054100;28;20087;-74
2023/06/12 08:45:26;;;;;;;1999.90;999.90;;;13.50;99.90;;;;;;5054456;28;20112;-70
2023/06/12 08:47:55;;;;;;;1999.90;999.90;;;13.50;99.90;;;;;;5054436;28;20091;-71
2023/06/12 08:50:24;;;;;;;1999.90;999.90;;;13.50;99.90;;;;;;5063356;28;20112;-70
2023/06/12 08:52:53;;;;;;;1999.90;999.90;;;13.50;99.90;;;;;;5059716;28;20040;-71
2023/06/12 08:55:21;;;;;;;1999.90;999.90;;;13.50;99.90;;;;;;5061141;28;20089;-71
2023/06/12 08:57:49;;;;;;;1999.90;999.90;;;13.50;99.90;;;;;;5054640;28;20421;-72
2023/06/12 09:00:17;;;;;;;1999.90;999.90;;;13.60;99.90;;;;;;5067119;28;20047;-73
2023/06/12 09:02:56;;;;;;;1999.90;999.90;;;13.60;99.90;;;;;;5058957;28;20516;-72
2023/06/12 09:05:37;;;;;;;1999.90;999.90;;;13.60;99.90;;;;;;5059814;28;20487;-71
2023/06/12 09:08:05;;;;;;;1999.90;999.90;;;13.70;99.90;;;;;;5061192;28;20037;-74
2023/06/12 09:10:38;;;;;;;1999.90;999.90;;;13.70;99.90;;;;;;5060196;28;20578;-72
2023/06/12 09:13:10;;;;;;;1999.90;999.90;;;13.70;99.90;;;;;;5062862;28;20055;-72
2023/06/12 09:15:49;;;;;;;1999.90;999.90;;;13.70;99.90;;;;;;5058183;28;20033;-71
2023/06/12 09:18:20;;;;;;;1999.90;999.90;;;13.80;99.90;;;;;;5055799;28;20025;-72
2023/06/12 09:20:50;;;;;;;1999.90;999.90;;;13.90;99.90;;;;;;5055388;28;20041;-71
2023/06/12 09:23:17;;;;;;;1999.90;999.90;;;13.90;99.90;;;;;;5058333;28;20455;-71
2023/06/12 09:25:45;;;;;;;1999.90;999.90;;;13.90;99.90;;;;;;5055691;28;20055;-71
2023/06/12 09:28:12;;;;;;;1999.90;999.90;;;13.90;99.90;;;;;;5054220;28;20031;-73
2023/06/12 09:30:41;;;;;;;1999.90;999.90;;;13.90;99.90;;;;;;5060033;28;20029;-73
2023/06/12 09:33:09;;;;;;;1999.90;999.90;;;13.90;99.90;;;;;;5048689;28;20037;-70
2023/06/12 09:35:56;;;;;;;1999.90;999.90;;;13.90;99.90;;;;;;5055679;28;20513;-71
2023/06/12 09:38:31;;;;;;;1999.90;999.90;;;13.90;99.90;;;;;;5060532;28;20033;-72
2023/06/12 09:40:59;;;;;;;1999.90;999.90;;;13.90;99.90;;;;;;5052355;28;20726;-71
2023/06/12 09:43:27;;;;;;;1999.90;999.90;;;13.90;99.90;;;;;;5056752;28;20086;-72
2023/06/12 09:45:55;;;;;;;1999.90;999.90;;;13.90;99.90;;;;;;5051875;28;20068;-72
2023/06/12 09:48:22;;;;;;;1999.90;999.90;;;13.90;99.90;;;;;;5062674;28;20042;-73
2023/06/12 09:50:51;;;;;;;1999.90;999.90;;;13.80;99.90;;;;;;5052757;28;20577;-74
2023/06/12 09:53:22;;;;;;;1999.90;999.90;;;13.80;99.90;;;;;;5057478;28;20043;-70
2023/06/12 09:55:51;;;;;;;1999.90;999.90;;;13.70;99.90;;;;;;5058701;28;20095;-72
2023/06/12 09:58:19;;;;;;;1999.90;999.90;;;13.70;99.90;;;;;;5055856;28;20047;-72
2023/06/12 10:00:47;;;;;;;1999.90;999.90;;;13.60;99.90;;;;;;5053817;28;20072;-71
2023/06/12 10:03:16;;;;;;;1999.90;999.90;;;13.60;99.90;;;;;;5048927;28;20035;-72
2023/06/12 10:05:53;;;;;;;1999.90;999.90;;;13.60;99.90;;;;;;5055521;28;20365;-72
2023/06/12 10:08:21;;;;;;;1999.90;999.90;;;13.60;99.90;;;;;;5052286;28;20144;-73
2023/06/12 10:10:53;;;;;;;1999.90;999.90;;;13.60;99.90;;;;;;5053337;28;20036;-71
2023/06/12 10:13:20;;;;;;;1999.90;999.90;;;13.60;99.90;;;;;;5046506;28;20032;-72
2023/06/12 10:15:50;;;;;;;1999.90;999.90;;;13.60;99.90;;;;;;5062746;28;20035;-71
2023/06/12 10:18:18;;;;;;;1999.90;999.90;;;13.60;99.90;;;;;;5052917;28;20463;-71
2023/06/12 10:20:47;;;;;;;1999.90;999.90;;;13.50;99.90;;;;;;5045128;28;20063;-70
2023/06/12 10:23:15;;;;;;;1999.90;999.90;;;13.60;99.90;;;;;;5054294;28;20044;-72
2023/06/12 10:25:44;;;;;;;1999.90;999.90;;;13.60;99.90;;;;;;5054191;28;20088;-71
2023/06/12 10:28:12;;;;;;;1999.90;999.90;;;13.60;99.90;;;;;;5057167;28;20101;-72
2023/06/12 10:30:59;;;;;;;1999.90;999.90;;;13.50;99.90;;;;;;5065771;28;20029;-72
2023/06/12 10:33:26;;;;;;;1999.90;999.90;;;13.60;99.90;;;;;;5058042;28;20021;-71
2023/06/12 10:35:55;;;;;;;1999.90;999.90;;;13.60;99.90;;;;;;5049212;28;20028;-71
2023/06/12 10:38:23;;;;;;;1999.90;999.90;;;13.60;99.90;;;;;;5057025;28;20079;-71
2023/06/12 10:40:51;;;;;;;1999.90;999.90;;;13.60;99.90;;;;;;5060090;28;20032;-71
2023/06/12 10:43:27;;;;;;;1999.90;999.90;;;13.60;99.90;;;;;;5059391;28;20025;-72
2023/06/12 10:45:58;;;;;;;1999.90;999.90;;;13.60;99.90;;;;;;5054581;28;20029;-74
2023/06/12 10:48:25;;;;;;;1999.90;999.90;;;13.60;99.90;;;;;;5053853;28;20037;-72
2023/06/12 10:50:57;;;;;;;1999.90;999.90;;;13.60;99.90;;;;;;5059240;28;20025;-72
2023/06/12 10:53:31;;;;;;;1999.90;999.90;;;13.60;99.90;;;;;;5057623;28;20032;-73
2023/06/12 10:56:07;;;;;;;1999.90;999.90;;;13.60;99.90;;;;;;5056680;28;20021;-72
2023/06/12 10:58:39;;;;;;;1999.90;999.90;;;13.60;99.90;;;;;;5058886;28;20028;-72
2023/06/12 11:01:14;;;;;;;1999.90;999.90;;;13.60;99.90;;;;;;5051606;28;20033;-71
2023/06/12 11:03:43;;;;;;;1999.90;999.90;;;13.70;99.90;;;;;;5061857;28;20033;-70
2023/06/12 11:06:15;;;;;;;1999.90;999.90;;;13.70;99.90;;;;;;5056293;28;20039;-75
2023/06/12 11:08:43;;;;;;;1999.90;999.90;;;13.70;99.90;;;;;;5060783;28;20079;-72
2023/06/12 11:11:12;;;;;;;1999.90;999.90;;;13.70;99.90;;;;;;5055801;28;20464;-75
2023/06/12 11:13:41;;;;;;;1999.90;999.90;;;13.70;99.90;;;;;;5061748;28;20037;-70
2023/06/12 11:16:12;;;;;;;1999.90;999.90;;;13.70;99.90;;;;;;5058682;28;20107;-70
2023/06/12 11:18:40;;;;;;;1999.90;999.90;;;13.70;99.90;;;;;;5059885;28;20609;-71
2023/06/12 11:21:09;;;;;;;1999.90;999.90;;;13.70;99.90;;;;;;5056144;28;20132;-71
2023/06/12 11:23:42;;;;;;;1999.90;999.90;;;13.70;99.90;;;;;;5061914;28;20021;-71
2023/06/12 11:26:10;;;;;;;1999.90;999.90;;;13.70;99.90;;;;;;5058615;28;20138;-80
2023/06/12 11:28:38;;;;;;;1999.90;999.90;;;13.70;99.90;;;;;;5056546;28;20042;-71
2023/06/12 11:31:07;;;;;;;1999.90;999.90;;;13.70;99.90;;;;;;5055697;28;20021;-75
2023/06/12 11:33:34;;;;;;;1999.90;999.90;;;13.70;99.90;;;;;;5055719;28;20029;-71
2023/06/12 11:36:02;;;;;;;1999.90;999.90;;;13.60;99.90;;;;;;5052172;28;20033;-70
2023/06/12 11:38:29;;;;;;;1999.90;999.90;;;13.60;99.90;;;;;;5050188;28;20039;-70
2023/06/12 11:40:57;;;;;;;1999.90;999.90;;;13.60;99.90;;;;;;5052743;28;20021;-71
2023/06/12 11:43:26;;;;;;;1999.90;999.90;;;13.60;99.90;;;;;;5050022;28;20072;-70
2023/06/12 11:45:56;;;;;;;1999.90;999.90;;;13.50;99.90;;;;;;5048501;28;20041;-70
2023/06/12 11:48:24;;;;;;;1999.90;999.90;;;13.50;99.90;;;;;;5058136;28;21151;-74
2023/06/12 11:50:53;;;;;;;1999.90;999.90;;;13.50;99.90;;;;;;5048384;28;20627;-70
2023/06/12 11:53:22;;;;;;;1999.90;999.90;;;13.40;99.90;;;;;;5054759;28;20192;-70
2023/06/12 11:56:00;;;;;;;1999.90;999.90;;;13.40;99.90;;;;;;5049052;28;20058;-70
2023/06/12 11:58:41;;;;;;;1999.90;999.90;;;13.30;99.90;;;;;;5051873;28;20039;-69
2023/06/12 12:01:22;;;;;;;1999.90;999.90;;;13.30;99.90;;;;;;5055310;28;20618;-72
2023/06/12 12:03:50;;;;;;;1999.90;999.90;;;13.30;99.90;;;;;;5060142;28;20027;-72
2023/06/12 12:06:18;;;;;;;1999.90;999.90;;;13.30;99.90;;;;;;5055752;28;20135;-71
2023/06/12 12:08:54;;;;;;;1999.90;999.90;;;13.30;99.90;;;;;;5049744;28;20545;-71